sensor_id;sensor_type;location;lat;lon;timestamp;pressure;altitude;pressure_sealevel;temperature;humidity
67457;BME280;54319;52.038;4.640;2023-05-25T00:01:30;102731.09;;;9.76;95.20
67457;BME280;54319;52.038;4.640;2023-05-25T00:03:58;102718.47;;;9.75;95.16
67457;BME280;54319;52.038;4.640;2023-05-25T00:06:27;102666.34;;;9.43;95.61
67457;BME280;54319;52.038;4.640;2023-05-25T00:08:54;102716.97;;;9.80;96.11
67457;BME280;54319;52.038;4.640;2023-05-25T00:11:21;102718.38;;;9.84;96.31
67457;BME280;54319;52.038;4.640;2023-05-25T00:13:50;102694.81;;;9.75;96.52
67457;BME280;54319;52.038;4.640;2023-05-25T00:16:17;102722.69;;;9.95;97.13
67457;BME280;54319;52.038;4.640;2023-05-25T00:18:44;102711.78;;;9.95;97.05
67457;BME280;54319;52.038;4.640;2023-05-25T00:21:12;102718.34;;;10.11;96.85
67457;BME280;54319;52.038;4.640;2023-05-25T00:23:40;102721.59;;;10.14;96.94
67457;BME280;54319;52.038;4.640;2023-05-25T00:26:07;102716.31;;;10.21;97.22
67457;BME280;54319;52.038;4.640;2023-05-25T00:28:33;102717.56;;;10.27;97.62
67457;BME280;54319;52.038;4.640;2023-05-25T00:31:01;102723.91;;;10.36;97.27
67457;BME280;54319;52.038;4.640;2023-05-25T00:33:28;102727.03;;;10.41;97.39
67457;BME280;54319;52.038;4.640;2023-05-25T00:35:55;102720.41;;;10.44;97.25
67457;BME280;54319;52.038;4.640;2023-05-25T00:38:22;102720.41;;;10.44;97.76
67457;BME280;54319;52.038;4.640;2023-05-25T00:40:54;102729.09;;;10.47;97.36
67457;BME280;54319;52.038;4.640;2023-05-25T00:43:20;102723.13;;;10.44;97.99
67457;BME280;54319;52.038;4.640;2023-05-25T00:45:48;102732.16;;;10.52;98.30
67457;BME280;54319;52.038;4.640;2023-05-25T00:48:16;102737.28;;;10.55;98.41
67457;BME280;54319;52.038;4.640;2023-05-25T00:50:43;102728.97;;;10.57;98.77
67457;BME280;54319;52.038;4.640;2023-05-25T00:53:11;102728.28;;;10.55;99.38
67457;BME280;54319;52.038;4.640;2023-05-25T00:55:38;102738.31;;;10.54;99.49
67457;BME280;54319;52.038;4.640;2023-05-25T00:58:07;102734.22;;;10.50;99.18
67457;BME280;54319;52.038;4.640;2023-05-25T01:00:36;102735.91;;;10.51;99.69
67457;BME280;54319;52.038;4.640;2023-05-25T01:03:11;102729.09;;;10.47;99.51
67457;BME280;54319;52.038;4.640;2023-05-25T01:05:44;102731.31;;;10.44;99.62
67457;BME280;54319;52.038;4.640;2023-05-25T01:08:13;102738.97;;;10.40;99.33
67457;BME280;54319;52.038;4.640;2023-05-25T01:10:40;102738.03;;;10.31;99.35
67457;BME280;54319;52.038;4.640;2023-05-25T01:13:08;102741.94;;;10.28;99.64
67457;BME280;54319;52.038;4.640;2023-05-25T01:15:36;102747.91;;;10.32;100.00
67457;BME280;54319;52.038;4.640;2023-05-25T01:18:03;102745.53;;;10.29;100.00
67457;BME280;54319;52.038;4.640;2023-05-25T01:20:30;102755.59;;;10.28;100.00
67457;BME280;54319;52.038;4.640;2023-05-25T01:26:22;102751.78;;;10.21;100.00
67457;BME280;54319;52.038;4.640;2023-05-25T01:28:52;102758.59;;;10.17;100.00
67457;BME280;54319;52.038;4.640;2023-05-25T01:31:21;102750.03;;;10.12;100.00
67457;BME280;54319;52.038;4.640;2023-05-25T01:33:49;102752.06;;;10.10;100.00
67457;BME280;54319;52.038;4.640;2023-05-25T01:36:17;102750.38;;;10.09;100.00
67457;BME280;54319;52.038;4.640;2023-05-25T01:38:44;102755.47;;;10.04;100.00
67457;BME280;54319;52.038;4.640;2023-05-25T01:41:12;102752.19;;;10.00;100.00
67457;BME280;54319;52.038;4.640;2023-05-25T01:43:40;102751.66;;;9.96;100.00
67457;BME280;54319;52.038;4.640;2023-05-25T01:46:12;102749.97;;;9.95;100.00
67457;BME280;54319;52.038;4.640;2023-05-25T01:48:46;102761.19;;;9.92;100.00
67457;BME280;54319;52.038;4.640;2023-05-25T01:51:18;102759.81;;;9.88;100.00
67457;BME280;54319;52.038;4.640;2023-05-25T01:53:51;102766.28;;;9.87;100.00
67457;BME280;54319;52.038;4.640;2023-05-25T01:56:20;102755.78;;;9.74;100.00
67457;BME280;54319;52.038;4.640;2023-05-25T01:58:49;102771.31;;;9.82;100.00
67457;BME280;54319;52.038;4.640;2023-05-25T02:01:17;102773.34;;;9.80;100.00
67457;BME280;54319;52.038;4.640;2023-05-25T02:03:46;102762.94;;;9.75;100.00
67457;BME280;54319;52.038;4.640;2023-05-25T02:06:14;102760.53;;;9.72;100.00
67457;BME280;54319;52.038;4.640;2023-05-25T02:08:41;102761.72;;;9.69;100.00
67457;BME280;54319;52.038;4.640;2023-05-25T02:11:11;102771.91;;;9.67;100.00
67457;BME280;54319;52.038;4.640;2023-05-25T02:13:39;102769.34;;;9.66;100.00
67457;BME280;54319;52.038;4.640;2023-05-25T02:16:08;102771.22;;;9.65;100.00
67457;BME280;54319;52.038;4.640;2023-05-25T02:18:35;102774.25;;;9.62;100.00
67457;BME280;54319;52.038;4.640;2023-05-25T02:21:02;102773.94;;;9.65;100.00
67457;BME280;54319;52.038;4.640;2023-05-25T02:23:28;102773.47;;;9.70;100.00
67457;BME280;54319;52.038;4.640;2023-05-25T02:25:55;102773.69;;;9.77;100.00
67457;BME280;54319;52.038;4.640;2023-05-25T02:28:22;102763.31;;;9.80;100.00
67457;BME280;54319;52.038;4.640;2023-05-25T02:30:49;102765.72;;;9.83;100.00
67457;BME280;54319;52.038;4.640;2023-05-25T02:33:17;102772.75;;;9.86;100.00
67457;BME280;54319;52.038;4.640;2023-05-25T02:35:44;102778.19;;;9.86;100.00
67457;BME280;54319;52.038;4.640;2023-05-25T02:38:11;102780.75;;;9.88;100.00
67457;BME280;54319;52.038;4.640;2023-05-25T02:40:37;102761.75;;;9.78;100.00
67457;BME280;54319;52.038;4.640;2023-05-25T02:43:04;102781.63;;;9.88;100.00
67457;BME280;54319;52.038;4.640;2023-05-25T02:45:30;102776.16;;;9.88;100.00
67457;BME280;54319;52.038;4.640;2023-05-25T02:47:57;102791.31;;;9.91;100.00
67457;BME280;54319;52.038;4.640;2023-05-25T02:50:25;102781.44;;;9.90;100.00
67457;BME280;54319;52.038;4.640;2023-05-25T02:52:51;102784.84;;;9.92;100.00
67457;BME280;54319;52.038;4.640;2023-05-25T02:55:19;102769.28;;;9.84;100.00
67457;BME280;54319;52.038;4.640;2023-05-25T02:57:45;102782.13;;;9.92;100.00
67457;BME280;54319;52.038;4.640;2023-05-25T03:00:13;102783.31;;;9.89;100.00
67457;BME280;54319;52.038;4.640;2023-05-25T03:02:40;102785.81;;;9.82;100.00
67457;BME280;54319;52.038;4.640;2023-05-25T03:05:06;102776.03;;;9.72;100.00
67457;BME280;54319;52.038;4.640;2023-05-25T03:07:34;102783.03;;;9.74;100.00
67457;BME280;54319;52.038;4.640;2023-05-25T03:10:01;102792.06;;;9.75;100.00
67457;BME280;54319;52.038;4.640;2023-05-25T03:12:28;102796.81;;;9.73;100.00
67457;BME280;54319;52.038;4.640;2023-05-25T03:14:54;102753.28;;;9.36;100.00
67457;BME280;54319;52.038;4.640;2023-05-25T03:17:21;102794.88;;;9.65;100.00
67457;BME280;54319;52.038;4.640;2023-05-25T03:19:47;102809.00;;;9.60;100.00
67457;BME280;54319;52.038;4.640;2023-05-25T03:22:14;102797.41;;;9.58;100.00
67457;BME280;54319;52.038;4.640;2023-05-25T03:24:42;102801.44;;;9.54;100.00
67457;BME280;54319;52.038;4.640;2023-05-25T03:27:08;102796.31;;;9.51;100.00
67457;BME280;54319;52.038;4.640;2023-05-25T03:29:35;102794.19;;;9.45;100.00
67457;BME280;54319;52.038;4.640;2023-05-25T03:32:02;102798.56;;;9.37;100.00
67457;BME280;54319;52.038;4.640;2023-05-25T03:34:28;102791.03;;;9.31;100.00
67457;BME280;54319;52.038;4.640;2023-05-25T03:36:55;102789.94;;;9.24;100.00
67457;BME280;54319;52.038;4.640;2023-05-25T03:39:22;102777.16;;;9.06;100.00
67457;BME280;54319;52.038;4.640;2023-05-25T03:41:50;102794.59;;;9.14;100.00
67457;BME280;54319;52.038;4.640;2023-05-25T03:44:16;102801.38;;;9.09;100.00
67457;BME280;54319;52.038;4.640;2023-05-25T03:46:43;102800.81;;;9.06;100.00
67457;BME280;54319;52.038;4.640;2023-05-25T03:49:09;102800.94;;;9.04;100.00
67457;BME280;54319;52.038;4.640;2023-05-25T03:51:38;102790.53;;;9.00;100.00
67457;BME280;54319;52.038;4.640;2023-05-25T03:54:05;102789.28;;;8.94;100.00
67457;BME280;54319;52.038;4.640;2023-05-25T03:56:32;102808.19;;;8.95;100.00
67457;BME280;54319;52.038;4.640;2023-05-25T03:59:00;102808.19;;;8.95;100.00
67457;BME280;54319;52.038;4.640;2023-05-25T04:01:26;102812.47;;;8.98;100.00
67457;BME280;54319;52.038;4.640;2023-05-25T04:03:54;102803.19;;;8.91;100.00
67457;BME280;54319;52.038;4.640;2023-05-25T04:06:21;102814.19;;;8.99;100.00
67457;BME280;54319;52.038;4.640;2023-05-25T04:08:49;102795.19;;;8.89;100.00
67457;BME280;54319;52.038;4.640;2023-05-25T04:11:16;102805.16;;;8.98;100.00
67457;BME280;54319;52.038;4.640;2023-05-25T04:13:43;102817.59;;;9.01;100.00
67457;BME280;54319;52.038;4.640;2023-05-25T04:16:11;102799.47;;;8.92;100.00
67457;BME280;54319;52.038;4.640;2023-05-25T04:18:38;102822.03;;;9.02;100.00
67457;BME280;54319;52.038;4.640;2023-05-25T04:21:05;102825.78;;;9.01;100.00
67457;BME280;54319;52.038;4.640;2023-05-25T04:23:31;102804.22;;;8.90;100.00
67457;BME280;54319;52.038;4.640;2023-05-25T04:25:59;102826.78;;;9.00;100.00
67457;BME280;54319;52.038;4.640;2023-05-25T04:28:26;102828.97;;;8.96;100.00
67457;BME280;54319;52.038;4.640;2023-05-25T04:30:53;102827.25;;;8.95;100.00
67457;BME280;54319;52.038;4.640;2023-05-25T04:33:22;102824.28;;;8.89;100.00
67457;BME280;54319;52.038;4.640;2023-05-25T04:35:53;102830.72;;;8.88;100.00
67457;BME280;54319;52.038;4.640;2023-05-25T04:38:22;102804.63;;;8.67;100.00
67457;BME280;54319;52.038;4.640;2023-05-25T04:40:49;102811.22;;;8.64;100.00
67457;BME280;54319;52.038;4.640;2023-05-25T04:43:16;102838.94;;;8.78;100.00
67457;BME280;54319;52.038;4.640;2023-05-25T04:45:44;102837.22;;;8.77;100.00
67457;BME280;54319;52.038;4.640;2023-05-25T04:48:11;102838.41;;;8.74;100.00
67457;BME280;54319;52.038;4.640;2023-05-25T04:50:39;102838.66;;;8.71;100.00
67457;BME280;54319;52.038;4.640;2023-05-25T04:53:07;102845.56;;;8.75;100.00
67457;BME280;54319;52.038;4.640;2023-05-25T04:55:33;102845.84;;;8.72;100.00
67457;BME280;54319;52.038;4.640;2023-05-25T04:58:00;102850.38;;;8.81;100.00
67457;BME280;54319;52.038;4.640;2023-05-25T05:00:27;102850.22;;;8.83;100.00
67457;BME280;54319;52.038;4.640;2023-05-25T05:02:54;102848.38;;;8.83;100.00
67457;BME280;54319;52.038;4.640;2023-05-25T05:05:21;102858.34;;;8.93;100.00
67457;BME280;54319;52.038;4.640;2023-05-25T05:07:49;102859.75;;;8.97;100.00
67457;BME280;54319;52.038;4.640;2023-05-25T05:10:18;102851.59;;;8.97;100.00
67457;BME280;54319;52.038;4.640;2023-05-25T05:12:44;102855.25;;;9.06;100.00
67457;BME280;54319;52.038;4.640;2023-05-25T05:15:11;102856.53;;;9.11;100.00
67457;BME280;54319;52.038;4.640;2023-05-25T05:17:38;102864.78;;;9.20;100.00
67457;BME280;54319;52.038;4.640;2023-05-25T05:20:06;102865.00;;;9.26;100.00
67457;BME280;54319;52.038;4.640;2023-05-25T05:22:33;102865.44;;;9.32;100.00
67457;BME280;54319;52.038;4.640;2023-05-25T05:25:01;102863.78;;;9.39;100.00
67457;BME280;54319;52.038;4.640;2023-05-25T05:27:28;102867.75;;;9.45;100.00
67457;BME280;54319;52.038;4.640;2023-05-25T05:29:55;102860.28;;;9.47;100.00
67457;BME280;54319;52.038;4.640;2023-05-25T05:32:21;102869.41;;;9.55;100.00
67457;BME280;54319;52.038;4.640;2023-05-25T05:34:48;102867.94;;;9.61;100.00
67457;BME280;54319;52.038;4.640;2023-05-25T05:37:15;102880.59;;;9.70;100.00
67457;BME280;54319;52.038;4.640;2023-05-25T05:39:41;102879.34;;;9.83;100.00
67457;BME280;54319;52.038;4.640;2023-05-25T05:42:09;102854.53;;;9.86;100.00
67457;BME280;54319;52.038;4.640;2023-05-25T05:44:36;102874.09;;;10.08;100.00
67457;BME280;54319;52.038;4.640;2023-05-25T05:47:04;102868.31;;;10.11;100.00
67457;BME280;54319;52.038;4.640;2023-05-25T05:49:31;102858.81;;;10.15;100.00
67457;BME280;54319;52.038;4.640;2023-05-25T05:51:58;102857.47;;;10.19;100.00
67457;BME280;54319;52.038;4.640;2023-05-25T05:54:25;102869.84;;;10.32;100.00
67457;BME280;54319;52.038;4.640;2023-05-25T05:56:52;102884.09;;;10.44;100.00
67457;BME280;54319;52.038;4.640;2023-05-25T05:59:21;102888.91;;;10.50;100.00
67457;BME280;54319;52.038;4.640;2023-05-25T06:01:48;102892.84;;;10.55;100.00
67457;BME280;54319;52.038;4.640;2023-05-25T06:04:14;102894.09;;;10.61;100.00
67457;BME280;54319;52.038;4.640;2023-05-25T06:06:41;102895.97;;;10.61;100.00
67457;BME280;54319;52.038;4.640;2023-05-25T06:09:09;102906.59;;;10.72;100.00
67457;BME280;54319;52.038;4.640;2023-05-25T06:11:36;102889.88;;;10.67;99.57
67457;BME280;54319;52.038;4.640;2023-05-25T06:14:04;102898.59;;;10.79;99.28
67457;BME280;54319;52.038;4.640;2023-05-25T06:16:32;102906.53;;;10.90;99.37
67457;BME280;54319;52.038;4.640;2023-05-25T06:18:59;102911.31;;;10.96;99.15
67457;BME280;54319;52.038;4.640;2023-05-25T06:21:25;102917.00;;;11.03;99.01
67457;BME280;54319;52.038;4.640;2023-05-25T06:23:52;102905.75;;;11.06;98.50
67457;BME280;54319;52.038;4.640;2023-05-25T06:26:19;102915.34;;;11.19;98.19
67457;BME280;54319;52.038;4.640;2023-05-25T06:28:45;102917.06;;;11.28;97.47
67457;BME280;54319;52.038;4.640;2023-05-25T06:31:13;102922.25;;;11.39;97.24
67457;BME280;54319;52.038;4.640;2023-05-25T06:33:41;102914.41;;;11.44;96.95
67457;BME280;54319;52.038;4.640;2023-05-25T06:36:08;102918.16;;;11.60;96.94
67457;BME280;54319;52.038;4.640;2023-05-25T06:38:35;102925.72;;;11.75;96.75
67457;BME280;54319;52.038;4.640;2023-05-25T06:41:01;102924.38;;;11.87;96.26
67457;BME280;54319;52.038;4.640;2023-05-25T06:43:29;102916.84;;;11.97;95.60
67457;BME280;54319;52.038;4.640;2023-05-25T06:45:56;102929.53;;;12.07;94.93
67457;BME280;54319;52.038;4.640;2023-05-25T06:48:23;102923.03;;;12.16;94.10
67457;BME280;54319;52.038;4.640;2023-05-25T06:50:51;102923.53;;;12.20;93.61
67457;BME280;54319;52.038;4.640;2023-05-25T06:53:17;102933.63;;;12.36;93.97
67457;BME280;54319;52.038;4.640;2023-05-25T06:55:44;102941.16;;;12.50;93.85
67457;BME280;54319;52.038;4.640;2023-05-25T06:58:11;102933.91;;;12.66;93.24
67457;BME280;54319;52.038;4.640;2023-05-25T07:00:37;102930.78;;;12.77;92.34
67457;BME280;54319;52.038;4.640;2023-05-25T07:03:04;102937.78;;;12.88;90.84
67457;BME280;54319;52.038;4.640;2023-05-25T07:05:30;102939.97;;;13.01;91.16
67457;BME280;54319;52.038;4.640;2023-05-25T07:07:58;102945.72;;;13.14;91.52
67457;BME280;54319;52.038;4.640;2023-05-25T07:10:25;102952.53;;;13.27;90.98
67457;BME280;54319;52.038;4.640;2023-05-25T07:12:52;102950.78;;;13.42;90.24
67457;BME280;54319;52.038;4.640;2023-05-25T07:15:18;102950.00;;;13.57;88.00
67457;BME280;54319;52.038;4.640;2023-05-25T07:17:45;102954.34;;;13.74;86.90
67457;BME280;54319;52.038;4.640;2023-05-25T07:20:12;102957.63;;;13.93;85.34
67457;BME280;54319;52.038;4.640;2023-05-25T07:22:39;102941.31;;;14.00;86.22
67457;BME280;54319;52.038;4.640;2023-05-25T07:25:08;102957.38;;;14.26;83.42
67457;BME280;54319;52.038;4.640;2023-05-25T07:27:35;102966.16;;;14.45;82.96
67457;BME280;54319;52.038;4.640;2023-05-25T07:30:01;102975.06;;;14.47;82.11
67457;BME280;54319;52.038;4.640;2023-05-25T07:32:28;102956.94;;;14.53;84.44
67457;BME280;54319;52.038;4.640;2023-05-25T07:34:55;102964.31;;;14.90;83.04
67457;BME280;54319;52.038;4.640;2023-05-25T07:37:21;102966.09;;;15.28;82.42
67457;BME280;54319;52.038;4.640;2023-05-25T07:39:48;102974.88;;;15.54;79.07
67457;BME280;54319;52.038;4.640;2023-05-25T07:42:16;102931.13;;;15.22;75.87
67457;BME280;54319;52.038;4.640;2023-05-25T07:44:45;102963.88;;;15.54;76.27
67457;BME280;54319;52.038;4.640;2023-05-25T07:47:12;102964.09;;;15.74;75.26
67457;BME280;54319;52.038;4.640;2023-05-25T07:49:38;102977.78;;;15.67;73.60
67457;BME280;54319;52.038;4.640;2023-05-25T07:52:05;102961.41;;;15.59;75.19
67457;BME280;54319;52.038;4.640;2023-05-25T07:54:32;102977.88;;;15.96;74.08
67457;BME280;54319;52.038;4.640;2023-05-25T07:56:58;102977.56;;;16.05;73.05
67457;BME280;54319;52.038;4.640;2023-05-25T07:59:26;102986.09;;;16.32;72.05
67457;BME280;54319;52.038;4.640;2023-05-25T08:01:53;102982.78;;;16.22;68.02
67457;BME280;54319;52.038;4.640;2023-05-25T08:04:20;102950.94;;;16.13;70.60
67457;BME280;54319;52.038;4.640;2023-05-25T08:06:46;102985.84;;;16.56;68.64
67457;BME280;54319;52.038;4.640;2023-05-25T08:09:13;102994.25;;;16.76;67.73
67457;BME280;54319;52.038;4.640;2023-05-25T08:11:39;102987.97;;;16.60;68.08
67457;BME280;54319;52.038;4.640;2023-05-25T08:14:08;103003.50;;;16.40;67.69
67457;BME280;54319;52.038;4.640;2023-05-25T08:16:36;102994.09;;;16.05;68.90
67457;BME280;54319;52.038;4.640;2023-05-25T08:19:03;102989.78;;;15.81;68.51
67457;BME280;54319;52.038;4.640;2023-05-25T08:21:29;102989.44;;;15.69;70.85
67457;BME280;54319;52.038;4.640;2023-05-25T08:23:59;103005.47;;;15.66;71.04
67457;BME280;54319;52.038;4.640;2023-05-25T08:26:28;103005.84;;;15.62;71.96
67457;BME280;54319;52.038;4.640;2023-05-25T08:28:54;102988.06;;;15.43;71.07
67457;BME280;54319;52.038;4.640;2023-05-25T08:31:21;103009.69;;;15.46;70.95
67457;BME280;54319;52.038;4.640;2023-05-25T08:33:49;103015.28;;;15.38;72.54
67457;BME280;54319;52.038;4.640;2023-05-25T08:36:16;103014.34;;;15.31;73.19
67457;BME280;54319;52.038;4.640;2023-05-25T08:38:43;103016.72;;;15.34;72.94
67457;BME280;54319;52.038;4.640;2023-05-25T08:41:11;103013.84;;;15.57;72.83
67457;BME280;54319;52.038;4.640;2023-05-25T08:43:37;102975.44;;;15.49;69.91
67457;BME280;54319;52.038;4.640;2023-05-25T08:46:05;103012.63;;;15.82;70.20
67457;BME280;54319;52.038;4.640;2023-05-25T08:48:33;103007.03;;;15.90;70.63
67457;BME280;54319;52.038;4.640;2023-05-25T08:51:05;103015.59;;;15.95;70.72
67457;BME280;54319;52.038;4.640;2023-05-25T08:53:34;103010.34;;;15.85;70.36
67457;BME280;54319;52.038;4.640;2023-05-25T08:56:07;103019.78;;;15.91;71.20
67457;BME280;54319;52.038;4.640;2023-05-25T08:58:38;103026.00;;;15.85;71.30
67457;BME280;54319;52.038;4.640;2023-05-25T09:01:13;103010.13;;;15.65;71.05
67457;BME280;54319;52.038;4.640;2023-05-25T09:03:41;102991.19;;;15.40;71.36
67457;BME280;54319;52.038;4.640;2023-05-25T09:06:10;103017.53;;;15.49;71.39
67457;BME280;54319;52.038;4.640;2023-05-25T09:08:37;102999.84;;;15.22;72.49
67457;BME280;54319;52.038;4.640;2023-05-25T09:11:05;103012.94;;;15.35;72.52
67457;BME280;54319;52.038;4.640;2023-05-25T09:13:32;103020.38;;;15.56;73.36
67457;BME280;54319;52.038;4.640;2023-05-25T09:16:00;103014.97;;;15.63;72.75
67457;BME280;54319;52.038;4.640;2023-05-25T09:18:27;103010.69;;;16.12;69.94
67457;BME280;54319;52.038;4.640;2023-05-25T09:20:53;103013.97;;;16.51;67.76
67457;BME280;54319;52.038;4.640;2023-05-25T09:23:21;103028.47;;;16.88;65.97
67457;BME280;54319;52.038;4.640;2023-05-25T09:25:50;103010.06;;;16.96;65.90
67457;BME280;54319;52.038;4.640;2023-05-25T09:28:17;103013.56;;;17.04;64.01
67457;BME280;54319;52.038;4.640;2023-05-25T09:30:44;103013.09;;;17.01;64.34
67457;BME280;54319;52.038;4.640;2023-05-25T09:33:12;103015.72;;;17.09;64.46
67457;BME280;54319;52.038;4.640;2023-05-25T09:35:38;103023.41;;;17.20;63.34
67457;BME280;54319;52.038;4.640;2023-05-25T09:38:05;103013.06;;;17.36;63.88
67457;BME280;54319;52.038;4.640;2023-05-25T09:40:34;103012.94;;;17.51;62.51
67457;BME280;54319;52.038;4.640;2023-05-25T09:43:01;103013.56;;;18.02;61.66
67457;BME280;54319;52.038;4.640;2023-05-25T09:45:29;103008.03;;;18.08;60.80
67457;BME280;54319;52.038;4.640;2023-05-25T09:47:56;103010.38;;;18.05;60.58
67457;BME280;54319;52.038;4.640;2023-05-25T09:50:23;103012.69;;;18.15;56.42
67457;BME280;54319;52.038;4.640;2023-05-25T09:52:57;103020.38;;;18.60;55.82
67457;BME280;54319;52.038;4.640;2023-05-25T09:55:25;103010.75;;;18.89;55.29
67457;BME280;54319;52.038;4.640;2023-05-25T09:57:54;103012.19;;;19.32;54.49
67457;BME280;54319;52.038;4.640;2023-05-25T10:00:21;103009.13;;;19.54;52.90
67457;BME280;54319;52.038;4.640;2023-05-25T10:02:48;103003.94;;;19.71;49.14
67457;BME280;54319;52.038;4.640;2023-05-25T10:05:15;102997.00;;;19.48;47.91
67457;BME280;54319;52.038;4.640;2023-05-25T10:07:43;103013.94;;;19.13;45.95
67457;BME280;54319;52.038;4.640;2023-05-25T10:10:13;103016.53;;;18.81;48.39
67457;BME280;54319;52.038;4.640;2023-05-25T10:12:42;103019.06;;;18.89;49.07
67457;BME280;54319;52.038;4.640;2023-05-25T10:15:11;103019.09;;;19.03;50.30
67457;BME280;54319;52.038;4.640;2023-05-25T10:17:43;103014.19;;;18.71;51.46
67457;BME280;54319;52.038;4.640;2023-05-25T10:20:12;103021.66;;;18.57;53.22
67457;BME280;54319;52.038;4.640;2023-05-25T10:22:43;103024.41;;;18.30;51.73
67457;BME280;54319;52.038;4.640;2023-05-25T10:25:15;103013.66;;;17.80;53.51
67457;BME280;54319;52.038;4.640;2023-05-25T10:27:46;103026.00;;;17.84;54.46
67457;BME280;54319;52.038;4.640;2023-05-25T10:30:15;103025.59;;;17.94;55.59
67457;BME280;54319;52.038;4.640;2023-05-25T10:32:43;103031.22;;;17.59;56.01
67457;BME280;54319;52.038;4.640;2023-05-25T10:35:13;103029.69;;;17.49;57.63
67457;BME280;54319;52.038;4.640;2023-05-25T10:37:40;103035.50;;;17.19;58.77
67457;BME280;54319;52.038;4.640;2023-05-25T10:40:08;103038.47;;;17.25;60.56
67457;BME280;54319;52.038;4.640;2023-05-25T10:42:36;103036.69;;;17.52;58.61
67457;BME280;54319;52.038;4.640;2023-05-25T10:45:04;103043.97;;;17.60;58.35
67457;BME280;54319;52.038;4.640;2023-05-25T10:47:34;103038.81;;;17.50;57.53
67457;BME280;54319;52.038;4.640;2023-05-25T10:50:02;103039.84;;;17.42;57.60
67457;BME280;54319;52.038;4.640;2023-05-25T10:52:30;103032.72;;;17.68;60.14
67457;BME280;54319;52.038;4.640;2023-05-25T10:54:58;103024.97;;;17.92;58.39
67457;BME280;54319;52.038;4.640;2023-05-25T10:57:28;103021.56;;;17.90;56.29
67457;BME280;54319;52.038;4.640;2023-05-25T11:00:00;103036.31;;;18.17;56.37
67457;BME280;54319;52.038;4.640;2023-05-25T11:02:48;103036.09;;;18.46;55.85
67457;BME280;54319;52.038;4.640;2023-05-25T11:05:35;103031.03;;;18.56;56.08
67457;BME280;54319;52.038;4.640;2023-05-25T11:08:04;103037.38;;;18.57;55.85
67457;BME280;54319;52.038;4.640;2023-05-25T11:10:41;103032.91;;;18.49;56.94
67457;BME280;54319;52.038;4.640;2023-05-25T11:13:21;103025.91;;;18.60;56.78
67457;BME280;54319;52.038;4.640;2023-05-25T11:16:06;103029.06;;;18.90;55.63
67457;BME280;54319;52.038;4.640;2023-05-25T11:18:40;103033.97;;;19.02;53.86
67457;BME280;54319;52.038;4.640;2023-05-25T11:21:12;103036.72;;;18.88;56.30
67457;BME280;54319;52.038;4.640;2023-05-25T11:23:51;103036.75;;;18.61;54.69
67457;BME280;54319;52.038;4.640;2023-05-25T11:26:19;103031.81;;;18.10;56.75
67457;BME280;54319;52.038;4.640;2023-05-25T11:28:47;103031.53;;;17.91;57.56
67457;BME280;54319;52.038;4.640;2023-05-25T11:31:14;103023.22;;;17.84;57.92
67457;BME280;54319;52.038;4.640;2023-05-25T11:33:43;103009.97;;;17.59;58.87
67457;BME280;54319;52.038;4.640;2023-05-25T11:36:09;103022.75;;;17.67;58.92
67457;BME280;54319;52.038;4.640;2023-05-25T11:38:40;103008.97;;;17.74;59.52
67457;BME280;54319;52.038;4.640;2023-05-25T11:41:15;103010.06;;;17.86;58.25
67457;BME280;54319;52.038;4.640;2023-05-25T11:43:44;102993.91;;;17.76;56.43
67457;BME280;54319;52.038;4.640;2023-05-25T11:46:11;103006.41;;;17.72;56.47
67457;BME280;54319;52.038;4.640;2023-05-25T11:48:44;102961.09;;;17.40;57.26
67457;BME280;54319;52.038;4.640;2023-05-25T11:51:11;103005.78;;;17.63;57.65
67457;BME280;54319;52.038;4.640;2023-05-25T11:53:42;103015.13;;;17.62;57.81
67457;BME280;54319;52.038;4.640;2023-05-25T11:56:12;103008.09;;;17.60;57.82
67457;BME280;54319;52.038;4.640;2023-05-25T11:58:38;103003.66;;;17.65;58.18
67457;BME280;54319;52.038;4.640;2023-05-25T12:01:12;103006.03;;;17.82;58.06
67457;BME280;54319;52.038;4.640;2023-05-25T12:03:39;102998.41;;;17.91;57.94
67457;BME280;54319;52.038;4.640;2023-05-25T12:06:07;103001.00;;;18.13;57.35
67457;BME280;54319;52.038;4.640;2023-05-25T12:08:36;103005.03;;;18.17;55.17
67457;BME280;54319;52.038;4.640;2023-05-25T12:11:03;102983.34;;;18.00;54.80
67457;BME280;54319;52.038;4.640;2023-05-25T12:13:30;103005.94;;;18.44;55.24
67457;BME280;54319;52.038;4.640;2023-05-25T12:15:57;103005.47;;;18.81;56.81
67457;BME280;54319;52.038;4.640;2023-05-25T12:18:24;103003.75;;;18.87;52.74
67457;BME280;54319;52.038;4.640;2023-05-25T12:20:51;103010.75;;;18.89;53.57
67457;BME280;54319;52.038;4.640;2023-05-25T12:23:20;103009.28;;;19.07;53.96
67457;BME280;54319;52.038;4.640;2023-05-25T12:25:46;103011.28;;;19.38;53.05
67457;BME280;54319;52.038;4.640;2023-05-25T12:28:15;103012.97;;;19.46;52.38
67457;BME280;54319;52.038;4.640;2023-05-25T12:30:41;103009.63;;;19.31;50.17
67457;BME280;54319;52.038;4.640;2023-05-25T12:33:12;103007.19;;;19.55;50.70
67457;BME280;54319;52.038;4.640;2023-05-25T12:35:46;102976.72;;;19.55;51.65
67457;BME280;54319;52.038;4.640;2023-05-25T12:38:16;102997.19;;;19.47;49.73
67457;BME280;54319;52.038;4.640;2023-05-25T12:40:45;102994.56;;;19.20;50.61
67457;BME280;54319;52.038;4.640;2023-05-25T12:43:12;103001.22;;;18.99;50.23
67457;BME280;54319;52.038;4.640;2023-05-25T12:45:41;103002.69;;;18.94;50.79
67457;BME280;54319;52.038;4.640;2023-05-25T12:48:08;102994.72;;;19.32;50.64
67457;BME280;54319;52.038;4.640;2023-05-25T12:50:35;103000.88;;;19.79;52.27
67457;BME280;54319;52.038;4.640;2023-05-25T12:53:02;103003.47;;;20.13;51.02
67457;BME280;54319;52.038;4.640;2023-05-25T12:55:30;103006.31;;;20.57;49.77
67457;BME280;54319;52.038;4.640;2023-05-25T12:57:59;103010.66;;;20.72;50.65